Time;durP1;ratioP1;P1;durP2;ratioP2;P2;SDS_P1;SDS_P2;PMS_P1;PMS_P2;Temp;Humidity;BMP_temperature;BMP_pressure;BME280_temperature;BME280_humidity;BME280_pressure;Samples;Min_cycle;Max_cycle;Signal;HPM_P1;HPM_P2
2023/07/23 00:00:28;;;;;;;0.00;0.00;;;15.50;91.20;;;;;;4995611;28;20076;-67
2023/07/23 00:02:54;;;;;;;0.00;0.00;;;15.60;91.20;;;;;;5008570;28;20045;-67
2023/07/23 00:05:21;;;;;;;0.00;0.00;;;15.50;91.20;;;;;;5009227;28;20722;-67
2023/07/23 00:07:47;;;;;;;0.00;0.00;;;15.50;91.10;;;;;;5010078;28;20033;-66
2023/07/23 00:10:12;;;;;;;0.00;0.00;;;15.50;91.10;;;;;;5012968;28;20541;-64
2023/07/23 00:12:38;;;;;;;0.00;0.00;;;15.60;91.00;;;;;;5012759;28;20096;-65
2023/07/23 00:15:04;;;;;;;0.00;0.00;;;15.50;91.10;;;;;;5012913;28;20049;-65
2023/07/23 00:17:30;;;;;;;0.00;0.00;;;15.50;91.10;;;;;;5013297;28;20049;-67
2023/07/23 00:19:56;;;;;;;0.00;0.00;;;15.50;91.00;;;;;;5013193;28;20386;-67
2023/07/23 00:22:21;;;;;;;0.00;0.00;;;15.50;91.10;;;;;;5012203;28;20038;-65
2023/07/23 00:24:47;;;;;;;0.00;0.00;;;15.50;91.10;;;;;;5012816;28;20100;-66
2023/07/23 00:27:15;;;;;;;0.00;0.00;;;15.50;90.90;;;;;;5013453;28;20057;-65
2023/07/23 00:29:41;;;;;;;1.00;0.85;;;15.40;90.80;;;;;;5012565;28;20521;-65
2023/07/23 00:32:07;;;;;;;0.00;0.00;;;15.40;90.60;;;;;;5012489;28;20052;-65
2023/07/23 00:34:33;;;;;;;0.17;0.17;;;15.40;90.50;;;;;;5013136;28;20125;-65
2023/07/23 00:36:59;;;;;;;0.17;0.17;;;15.40;90.50;;;;;;5012595;28;20126;-65
2023/07/23 00:39:24;;;;;;;0.00;0.00;;;15.40;90.30;;;;;;5012397;28;20042;-65
2023/07/23 00:41:50;;;;;;;0.00;0.00;;;15.40;90.40;;;;;;5012932;28;20509;-65
2023/07/23 00:44:16;;;;;;;0.00;0.00;;;15.40;90.70;;;;;;5011880;28;20040;-65
2023/07/23 00:46:42;;;;;;;0.00;0.00;;;15.40;90.80;;;;;;5012211;28;20394;-66
2023/07/23 00:49:09;;;;;;;0.00;0.00;;;15.40;91.10;;;;;;5012655;28;20516;-66
2023/07/23 00:51:35;;;;;;;0.00;0.00;;;15.40;91.30;;;;;;5012415;28;20057;-65
2023/07/23 00:54:01;;;;;;;0.00;0.00;;;15.40;91.10;;;;;;5012190;28;21044;-66
2023/07/23 00:56:27;;;;;;;0.00;0.00;;;15.50;91.10;;;;;;5011312;28;20050;-66
2023/07/23 00:58:53;;;;;;;0.05;0.05;;;15.50;91.00;;;;;;5012297;28;20145;-66
2023/07/23 01:01:20;;;;;;;0.00;0.00;;;15.60;90.90;;;;;;4992613;28;20050;-65
2023/07/23 01:03:46;;;;;;;0.00;0.00;;;15.60;90.90;;;;;;5005645;28;20048;-65
2023/07/23 01:06:12;;;;;;;0.00;0.00;;;15.60;90.80;;;;;;4999604;28;20038;-65
2023/07/23 01:08:39;;;;;;;0.00;0.00;;;15.60;91.20;;;;;;5012062;28;20038;-66
2023/07/23 01:11:06;;;;;;;0.00;0.00;;;15.60;91.00;;;;;;5011069;28;20649;-65
2023/07/23 01:13:31;;;;;;;0.00;0.00;;;15.60;91.50;;;;;;5010544;28;20418;-67
2023/07/23 01:15:58;;;;;;;3.90;1.55;;;15.60;91.60;;;;;;5010908;28;20148;-67
2023/07/23 01:18:25;;;;;;;0.00;0.00;;;15.50;91.60;;;;;;5012030;28;20048;-66
2023/07/23 01:20:50;;;;;;;0.00;0.00;;;15.50;91.50;;;;;;5010863;28;20077;-66
2023/07/23 01:23:16;;;;;;;0.00;0.00;;;15.50;91.50;;;;;;5011857;28;20557;-66
2023/07/23 01:25:41;;;;;;;0.00;0.00;;;15.50;91.30;;;;;;5011681;28;20046;-67
2023/07/23 01:28:07;;;;;;;0.90;0.70;;;15.50;91.50;;;;;;5011602;28;20073;-66
2023/07/23 01:30:33;;;;;;;0.00;0.00;;;15.50;91.40;;;;;;5002816;28;20129;-66
2023/07/23 01:33:00;;;;;;;0.00;0.00;;;15.50;91.20;;;;;;5011096;28;20145;-66
2023/07/23 01:35:25;;;;;;;0.00;0.00;;;15.50;91.00;;;;;;5011692;28;20088;-66
2023/07/23 01:37:51;;;;;;;0.00;0.00;;;15.50;91.20;;;;;;5011502;28;20046;-67
2023/07/23 01:40:17;;;;;;;0.00;0.00;;;15.50;91.20;;;;;;5011089;28;20068;-66
2023/07/23 01:42:44;;;;;;;0.08;0.08;;;15.40;91.10;;;;;;5010912;28;20081;-66
2023/07/23 01:45:10;;;;;;;0.00;0.00;;;15.40;91.60;;;;;;5011884;28;20042;-66
2023/07/23 01:47:36;;;;;;;0.00;0.00;;;15.40;91.60;;;;;;5010834;28;20064;-66
2023/07/23 01:50:02;;;;;;;0.00;0.00;;;15.30;91.60;;;;;;5011375;28;20881;-66
2023/07/23 01:52:27;;;;;;;0.00;0.00;;;15.40;91.50;;;;;;5011259;28;20157;-66
2023/07/23 01:54:53;;;;;;;0.00;0.00;;;15.40;91.50;;;;;;5009070;28;20486;-66
2023/07/23 01:57:18;;;;;;;0.00;0.00;;;15.40;91.70;;;;;;5010770;28;20414;-66
2023/07/23 01:59:45;;;;;;;0.00;0.00;;;15.40;91.50;;;;;;5010183;28;20368;-66
2023/07/23 02:02:11;;;;;;;0.00;0.00;;;15.30;91.60;;;;;;5007737;28;20057;-69
2023/07/23 02:04:36;;;;;;;0.00;0.00;;;15.30;91.70;;;;;;5010007;28;20049;-69
2023/07/23 02:07:02;;;;;;;0.00;0.00;;;15.30;91.80;;;;;;5009624;28;20056;-69
2023/07/23 02:09:28;;;;;;;0.00;0.00;;;15.20;91.70;;;;;;5010875;28;20056;-67
2023/07/23 02:11:54;;;;;;;2.20;0.63;;;15.30;91.70;;;;;;5011111;28;20046;-68
2023/07/23 02:14:19;;;;;;;0.00;0.00;;;15.30;91.70;;;;;;5010677;28;20046;-69
2023/07/23 02:16:45;;;;;;;0.00;0.00;;;15.20;91.60;;;;;;5010541;28;20053;-69
2023/07/23 02:19:12;;;;;;;0.00;0.00;;;15.20;91.80;;;;;;5010548;28;21314;-70
2023/07/23 02:21:38;;;;;;;0.00;0.00;;;15.20;91.60;;;;;;5005592;28;20050;-69
2023/07/23 02:24:05;;;;;;;0.10;0.08;;;15.20;91.50;;;;;;5001675;28;20061;-70
2023/07/23 02:26:30;;;;;;;0.20;0.20;;;15.20;91.60;;;;;;5010967;28;20049;-69
2023/07/23 02:28:56;;;;;;;0.10;0.10;;;15.20;91.50;;;;;;5010184;28;20099;-69
2023/07/23 02:31:21;;;;;;;0.00;0.00;;;15.20;91.50;;;;;;4996343;28;20659;-70
2023/07/23 02:33:47;;;;;;;0.00;0.00;;;15.20;91.50;;;;;;4991650;28;20042;-69
2023/07/23 02:36:12;;;;;;;0.00;0.00;;;15.30;91.40;;;;;;5008803;28;20053;-69
2023/07/23 02:38:38;;;;;;;0.00;0.00;;;15.20;91.30;;;;;;5009260;28;20491;-69
2023/07/23 02:41:03;;;;;;;0.00;0.00;;;15.30;91.20;;;;;;5010717;28;20410;-70
2023/07/23 02:43:29;;;;;;;0.00;0.00;;;15.20;91.40;;;;;;5010412;28;20091;-69
2023/07/23 02:45:55;;;;;;;0.00;0.00;;;15.20;91.30;;;;;;5010410;28;20045;-69
2023/07/23 02:48:20;;;;;;;0.00;0.00;;;15.20;91.40;;;;;;5010181;28;20046;-69
2023/07/23 02:50:46;;;;;;;0.00;0.00;;;15.20;91.20;;;;;;5010114;28;20038;-70
2023/07/23 02:53:11;;;;;;;0.00;0.00;;;15.20;91.10;;;;;;4996084;28;20515;-69
2023/07/23 02:55:37;;;;;;;0.00;0.00;;;15.30;91.10;;;;;;4990489;28;20082;-69
2023/07/23 02:58:03;;;;;;;0.00;0.00;;;15.20;91.30;;;;;;5004792;28;20050;-70
2023/07/23 03:00:32;;;;;;;0.00;0.00;;;15.30;91.40;;;;;;5010007;28;20057;-70
2023/07/23 03:02:58;;;;;;;0.00;0.00;;;15.20;91.50;;;;;;5009704;28;20053;-70
2023/07/23 03:05:24;;;;;;;0.10;0.10;;;15.20;91.60;;;;;;5000490;28;20046;-69
2023/07/23 03:07:51;;;;;;;0.00;0.00;;;15.30;91.60;;;;;;5002647;28;20050;-69
2023/07/23 03:10:17;;;;;;;0.00;0.00;;;15.20;91.50;;;;;;5009987;28;20391;-69
2023/07/23 03:12:43;;;;;;;0.00;0.00;;;15.30;91.60;;;;;;5009643;28;20053;-69
2023/07/23 03:15:09;;;;;;;0.00;0.00;;;15.20;91.30;;;;;;5009907;28;20052;-69
2023/07/23 03:17:34;;;;;;;0.00;0.00;;;15.30;91.20;;;;;;5009972;28;20152;-69
2023/07/23 03:20:00;;;;;;;0.20;0.20;;;15.30;91.30;;;;;;5009936;28;20485;-69
2023/07/23 03:22:25;;;;;;;0.00;0.00;;;15.30;91.30;;;;;;5009840;28;20042;-70
2023/07/23 03:24:51;;;;;;;0.00;0.00;;;15.30;91.40;;;;;;5009913;28;20159;-69
2023/07/23 03:27:16;;;;;;;0.00;0.00;;;15.30;91.30;;;;;;5008649;28;20041;-69
2023/07/23 03:29:42;;;;;;;0.00;0.00;;;15.30;91.40;;;;;;5009799;28;20049;-69
2023/07/23 03:32:07;;;;;;;0.00;0.00;;;15.40;91.30;;;;;;5009857;28;20049;-69
2023/07/23 03:34:33;;;;;;;0.00;0.00;;;15.40;91.20;;;;;;5008444;28;20042;-69
2023/07/23 03:36:59;;;;;;;0.00;0.00;;;15.40;91.20;;;;;;5006909;28;20127;-69
2023/07/23 03:39:24;;;;;;;0.32;0.32;;;15.40;91.00;;;;;;5009570;28;20045;-69
2023/07/23 03:41:50;;;;;;;0.00;0.00;;;15.40;91.00;;;;;;5009498;28;20049;-69
2023/07/23 03:44:16;;;;;;;0.00;0.00;;;15.40;90.90;;;;;;5009274;28;20053;-69
2023/07/23 03:47:10;;;;;;;0.05;0.05;;;15.40;91.00;;;;;;5009237;28;20050;-70
2023/07/23 03:49:36;;;;;;;0.00;0.00;;;15.40;91.10;;;;;;5009454;28;20157;-69
2023/07/23 03:52:01;;;;;;;0.00;0.00;;;15.40;91.20;;;;;;5009404;28;20463;-69
2023/07/23 03:54:29;;;;;;;0.00;0.00;;;15.40;91.20;;;;;;5009524;28;20046;-69
2023/07/23 03:56:54;;;;;;;0.00;0.00;;;15.40;91.20;;;;;;5008438;28;20064;-69
2023/07/23 03:59:20;;;;;;;0.43;0.43;;;15.40;91.10;;;;;;5008747;28;20088;-68
2023/07/23 04:01:45;;;;;;;0.35;0.35;;;15.40;91.10;;;;;;5008731;28;20406;-68
2023/07/23 04:04:11;;;;;;;0.00;0.00;;;15.40;91.00;;;;;;5008440;28;20109;-68
2023/07/23 04:06:36;;;;;;;0.00;0.00;;;15.40;91.10;;;;;;5009142;28;20046;-68
2023/07/23 04:09:02;;;;;;;0.00;0.00;;;15.30;91.10;;;;;;5009253;28;20046;-70
2023/07/23 04:11:28;;;;;;;0.10;0.10;;;15.40;91.10;;;;;;5008960;28;20048;-69
2023/07/23 04:13:53;;;;;;;0.00;0.00;;;15.30;91.10;;;;;;5008957;28;20057;-69
2023/07/23 04:16:19;;;;;;;0.00;0.00;;;15.30;91.10;;;;;;5009089;28;20073;-69
2023/07/23 04:18:46;;;;;;;0.00;0.00;;;15.40;91.20;;;;;;5008947;28;20053;-69
2023/07/23 04:21:13;;;;;;;0.00;0.00;;;15.30;91.10;;;;;;5009286;28;20120;-69
2023/07/23 04:23:38;;;;;;;0.00;0.00;;;15.40;91.00;;;;;;5009296;28;20046;-69
2023/07/23 04:26:04;;;;;;;0.00;0.00;;;15.40;91.10;;;;;;5007249;28;20148;-69
2023/07/23 04:28:29;;;;;;;0.00;0.00;;;15.40;91.10;;;;;;5008669;28;20104;-69
2023/07/23 04:30:55;;;;;;;0.00;0.00;;;15.40;91.10;;;;;;5008646;28;20057;-69
2023/07/23 04:33:20;;;;;;;0.00;0.00;;;15.40;91.20;;;;;;5008750;28;20051;-69
2023/07/23 04:35:46;;;;;;;0.00;0.00;;;15.40;91.10;;;;;;5008623;28;20046;-69
2023/07/23 04:38:11;;;;;;;0.00;0.00;;;15.40;91.00;;;;;;5008850;28;20459;-69
2023/07/23 04:40:37;;;;;;;0.03;0.03;;;15.50;91.00;;;;;;5008668;28;20045;-69
2023/07/23 04:43:03;;;;;;;0.00;0.00;;;15.50;91.10;;;;;;5007662;28;20097;-69
2023/07/23 04:45:29;;;;;;;0.82;0.80;;;15.50;91.10;;;;;;5007312;28;20141;-69
2023/07/23 04:47:55;;;;;;;0.00;0.00;;;15.50;91.10;;;;;;5008627;28;20495;-69
2023/07/23 04:50:21;;;;;;;0.63;0.63;;;15.50;91.00;;;;;;5008583;28;20038;-69
2023/07/23 04:52:46;;;;;;;0.00;0.00;;;15.40;91.20;;;;;;5008390;28;20058;-69
2023/07/23 04:55:12;;;;;;;0.00;0.00;;;15.40;91.20;;;;;;5010192;28;20460;-69
2023/07/23 04:57:38;;;;;;;0.10;0.10;;;15.40;91.30;;;;;;5011837;28;20048;-69
2023/07/23 05:00:07;;;;;;;0.00;0.00;;;15.40;91.40;;;;;;5012060;28;20056;-68
2023/07/23 05:02:33;;;;;;;0.10;0.10;;;15.40;91.40;;;;;;5012406;28;20096;-69
2023/07/23 05:04:58;;;;;;;0.00;0.00;;;15.50;91.40;;;;;;5012319;28;20125;-68
2023/07/23 05:07:24;;;;;;;0.00;0.00;;;15.50;91.50;;;;;;5011957;28;20120;-69
2023/07/23 05:09:49;;;;;;;0.00;0.00;;;15.50;91.30;;;;;;5012228;28;20049;-68
2023/07/23 05:12:15;;;;;;;0.00;0.00;;;15.40;91.30;;;;;;5012167;28;20569;-68
2023/07/23 05:14:41;;;;;;;0.15;0.15;;;15.50;91.50;;;;;;5011749;28;20379;-69
2023/07/23 05:17:06;;;;;;;0.05;0.05;;;15.40;91.50;;;;;;5012252;28;20104;-68
2023/07/23 05:19:32;;;;;;;0.22;0.22;;;15.40;91.40;;;;;;5012524;28;20117;-70
2023/07/23 05:21:58;;;;;;;0.00;0.00;;;15.40;91.50;;;;;;5011698;28;20048;-68
2023/07/23 05:24:24;;;;;;;0.00;0.00;;;15.50;91.50;;;;;;5011750;28;20050;-69
2023/07/23 05:26:49;;;;;;;0.13;0.13;;;15.50;91.50;;;;;;5011545;28;20042;-69
2023/07/23 05:29:15;;;;;;;0.10;0.10;;;15.50;91.70;;;;;;5012049;28;20487;-69
2023/07/23 05:31:40;;;;;;;0.00;0.00;;;15.50;91.60;;;;;;5011850;28;20498;-68
2023/07/23 05:34:06;;;;;;;0.00;0.00;;;15.40;91.60;;;;;;5011092;28;20487;-68
2023/07/23 05:36:31;;;;;;;0.00;0.00;;;15.40;91.50;;;;;;5011103;28;20141;-68
2023/07/23 05:38:57;;;;;;;0.00;0.00;;;15.50;91.50;;;;;;5011364;28;20042;-69
2023/07/23 05:41:22;;;;;;;0.00;0.00;;;15.50;91.40;;;;;;5011849;28;20497;-68
2023/07/23 05:43:48;;;;;;;0.00;0.00;;;15.50;91.50;;;;;;5011727;28;20456;-68
2023/07/23 05:46:13;;;;;;;0.08;0.08;;;15.50;91.40;;;;;;5011479;28;20049;-69
2023/07/23 05:48:39;;;;;;;0.00;0.00;;;15.50;91.40;;;;;;5011202;28;20034;-70
2023/07/23 05:51:04;;;;;;;0.00;0.00;;;15.50;91.40;;;;;;5011581;28;20411;-69
2023/07/23 05:53:31;;;;;;;0.00;0.00;;;15.50;91.30;;;;;;5003325;28;20065;-69
2023/07/23 05:55:56;;;;;;;0.00;0.00;;;15.50;91.20;;;;;;5003194;28;20049;-69
2023/07/23 05:58:22;;;;;;;0.00;0.00;;;15.60;91.00;;;;;;5001773;28;20042;-68
2023/07/23 06:00:47;;;;;;;0.00;0.00;;;15.50;91.00;;;;;;4991922;28;20411;-68
2023/07/23 06:03:13;;;;;;;0.00;0.00;;;15.60;91.00;;;;;;5002642;28;20061;-69
2023/07/23 06:05:38;;;;;;;0.00;0.00;;;15.60;91.00;;;;;;5010857;28;20402;-68
2023/07/23 06:08:04;;;;;;;0.20;0.20;;;15.60;90.90;;;;;;5010912;28;20633;-69
2023/07/23 06:10:30;;;;;;;0.00;0.00;;;15.60;91.10;;;;;;5004725;28;20042;-69
2023/07/23 06:12:56;;;;;;;0.20;0.20;;;15.60;91.10;;;;;;5010502;28;20054;-69
2023/07/23 06:15:22;;;;;;;0.00;0.00;;;15.60;90.90;;;;;;5009193;28;20041;-69
2023/07/23 06:17:47;;;;;;;0.00;0.00;;;15.70;91.00;;;;;;5000513;28;20038;-69
2023/07/23 06:20:13;;;;;;;0.00;0.00;;;15.60;91.00;;;;;;4997420;28;20189;-69
2023/07/23 06:22:38;;;;;;;0.85;0.30;;;15.70;91.10;;;;;;5009857;28;20052;-69
2023/07/23 06:25:04;;;;;;;0.00;0.00;;;15.60;91.00;;;;;;5009965;28;20418;-69
2023/07/23 06:27:30;;;;;;;0.15;0.15;;;15.70;90.90;;;;;;5009492;28;20129;-69
2023/07/23 06:29:55;;;;;;;0.10;0.10;;;15.70;91.00;;;;;;5010656;28;20140;-69
2023/07/23 06:32:21;;;;;;;0.00;0.00;;;15.70;91.10;;;;;;5010846;28;20092;-69
2023/07/23 06:34:46;;;;;;;0.20;0.20;;;15.70;91.00;;;;;;5010046;28;20124;-69
2023/07/23 06:37:12;;;;;;;0.10;0.10;;;15.70;90.90;;;;;;5003880;28;20104;-69
2023/07/23 06:39:37;;;;;;;0.00;0.00;;;15.70;91.10;;;;;;4997714;28;20046;-69
2023/07/23 06:42:03;;;;;;;0.00;0.00;;;15.80;91.10;;;;;;5002828;28;20065;-69
2023/07/23 06:44:29;;;;;;;0.00;0.00;;;15.80;91.10;;;;;;4995955;28;20037;-69
2023/07/23 06:46:57;;;;;;;0.10;0.10;;;15.80;91.20;;;;;;5004204;28;20084;-68
2023/07/23 06:49:28;;;;;;;0.00;0.00;;;15.80;91.30;;;;;;4998403;28;20053;-69
2023/07/23 06:51:56;;;;;;;0.70;0.70;;;15.80;91.20;;;;;;5002329;28;20100;-68
2023/07/23 06:54:22;;;;;;;0.10;0.10;;;15.80;91.20;;;;;;4992420;28;20057;-69
2023/07/23 06:56:49;;;;;;;0.00;0.00;;;15.90;91.10;;;;;;5008960;28;20429;-70
2023/07/23 06:59:15;;;;;;;0.20;0.20;;;15.90;91.10;;;;;;5010067;28;20040;-69
2023/07/23 07:01:40;;;;;;;0.00;0.00;;;15.90;91.20;;;;;;5007647;28;20050;-69
2023/07/23 07:04:06;;;;;;;0.00;0.00;;;15.90;91.20;;;;;;5009050;28;20418;-69
2023/07/23 07:06:32;;;;;;;0.00;0.00;;;15.90;91.30;;;;;;5008796;28;20486;-69
2023/07/23 07:08:57;;;;;;;0.20;0.20;;;15.90;91.50;;;;;;5005859;28;20049;-69
2023/07/23 07:11:23;;;;;;;0.22;0.22;;;15.90;91.50;;;;;;5008469;28;20569;-69
2023/07/23 07:13:48;;;;;;;0.00;0.00;;;16.00;91.50;;;;;;5009209;28;20049;-69
2023/07/23 07:16:14;;;;;;;0.10;0.10;;;16.00;91.70;;;;;;4999879;28;20145;-69
2023/07/23 07:18:39;;;;;;;0.00;0.00;;;16.00;91.90;;;;;;5008023;28;20123;-69
2023/07/23 07:21:05;;;;;;;1.08;0.82;;;16.00;92.00;;;;;;5008680;28;20108;-69
2023/07/23 07:23:31;;;;;;;0.00;0.00;;;16.10;92.20;;;;;;5007201;28;20049;-69
2023/07/23 07:25:59;;;;;;;0.10;0.10;;;16.10;92.10;;;;;;5008741;28;20046;-69
2023/07/23 07:28:25;;;;;;;0.00;0.00;;;16.10;92.00;;;;;;5008617;28;20056;-70
2023/07/23 07:31:00;;;;;;;0.00;0.00;;;16.20;92.10;;;;;;5009588;28;20477;-69
2023/07/23 07:33:27;;;;;;;1.35;0.47;;;16.20;92.20;;;;;;5003681;28;20539;-69
2023/07/23 07:36:00;;;;;;;0.00;0.00;;;16.20;92.10;;;;;;4995422;28;20651;-68
2023/07/23 07:38:26;;;;;;;0.00;0.00;;;16.20;92.10;;;;;;5004998;28;20578;-69
2023/07/23 07:40:52;;;;;;;0.30;0.30;;;16.30;92.00;;;;;;5008418;28;20064;-68
2023/07/23 07:43:18;;;;;;;0.00;0.00;;;16.20;92.00;;;;;;5008516;28;20046;-68
2023/07/23 07:45:54;;;;;;;0.00;0.00;;;16.30;91.90;;;;;;5006979;28;20064;-69
2023/07/23 07:48:20;;;;;;;0.00;0.00;;;16.20;91.90;;;;;;5008677;28;20050;-69
2023/07/23 07:50:48;;;;;;;0.00;0.00;;;16.30;91.80;;;;;;5008597;28;20066;-69
2023/07/23 07:53:15;;;;;;;0.10;0.10;;;16.30;91.60;;;;;;5008564;28;20094;-69
2023/07/23 07:55:42;;;;;;;0.00;0.00;;;16.40;91.60;;;;;;5008507;28;20054;-69
2023/07/23 07:58:12;;;;;;;0.10;0.10;;;16.30;91.80;;;;;;5007419;28;20045;-69
2023/07/23 08:00:39;;;;;;;0.00;0.00;;;16.30;91.70;;;;;;5004853;28;20056;-70
2023/07/23 08:03:04;;;;;;;0.00;0.00;;;16.30;91.80;;;;;;5005878;28;20080;-68
2023/07/23 08:05:30;;;;;;;0.10;0.10;;;16.30;91.80;;;;;;5007475;28;20180;-69
2023/07/23 08:07:57;;;;;;;0.38;0.38;;;16.40;91.80;;;;;;5006574;28;20038;-69
2023/07/23 08:10:22;;;;;;;0.10;0.10;;;16.40;91.70;;;;;;5007133;28;20489;-69
2023/07/23 08:12:48;;;;;;;0.20;0.20;;;16.40;91.70;;;;;;5003257;28;20132;-70
2023/07/23 08:15:14;;;;;;;0.10;0.10;;;16.50;91.70;;;;;;5002341;28;20034;-70
2023/07/23 08:17:40;;;;;;;0.00;0.00;;;16.50;91.80;;;;;;5006677;28;20097;-69
2023/07/23 08:20:06;;;;;;;0.10;0.10;;;16.50;91.70;;;;;;5000635;28;20050;-69
2023/07/23 08:22:32;;;;;;;0.30;0.30;;;16.60;91.90;;;;;;5000094;28;20065;-68
2023/07/23 08:24:58;;;;;;;0.00;0.00;;;16.60;91.70;;;;;;5008270;28;20049;-69
2023/07/23 08:27:25;;;;;;;0.00;0.00;;;16.60;91.50;;;;;;5007197;28;20515;-70
2023/07/23 08:29:50;;;;;;;0.10;0.10;;;16.60;91.20;;;;;;5008891;28;20058;-69
2023/07/23 08:32:19;;;;;;;0.00;0.00;;;16.60;91.00;;;;;;5005964;28;20073;-70
2023/07/23 08:34:46;;;;;;;0.08;0.08;;;16.70;90.70;;;;;;5003642;28;20523;-69
2023/07/23 08:37:12;;;;;;;0.28;0.28;;;16.70;90.80;;;;;;5008550;28;20061;-68
2023/07/23 08:39:38;;;;;;;0.00;0.00;;;16.70;90.70;;;;;;5011632;28;20069;-69
2023/07/23 08:42:21;;;;;;;0.00;0.00;;;16.70;90.60;;;;;;5012115;28;20085;-70
2023/07/23 08:45:14;;;;;;;0.03;0.03;;;16.70;90.70;;;;;;5011698;28;20112;-69
2023/07/23 08:47:46;;;;;;;0.20;0.20;;;16.70;90.80;;;;;;5011765;28;20064;-69
2023/07/23 08:50:13;;;;;;;0.00;0.00;;;16.70;90.80;;;;;;5011131;28;20077;-69
2023/07/23 08:52:41;;;;;;;0.00;0.00;;;16.70;90.70;;;;;;5010977;28;20050;-70
2023/07/23 08:55:07;;;;;;;0.00;0.00;;;16.60;90.60;;;;;;5005885;28;20677;-68
2023/07/23 08:57:35;;;;;;;0.10;0.10;;;16.60;90.80;;;;;;5012062;28;20038;-69
2023/07/23 09:00:02;;;;;;;0.08;0.08;;;16.60;90.70;;;;;;4997251;28;20690;-69
2023/07/23 09:02:28;;;;;;;0.00;0.00;;;16.70;90.70;;;;;;5004200;28;20052;-69
2023/07/23 09:04:54;;;;;;;0.00;0.00;;;16.70;90.70;;;;;;5010091;28;20042;-67
2023/07/23 09:07:20;;;;;;;1.50;0.38;;;16.70;90.50;;;;;;5011785;28;20085;-65
2023/07/23 09:09:49;;;;;;;0.00;0.00;;;16.70;90.50;;;;;;5011395;28;20096;-64
2023/07/23 09:12:15;;;;;;;0.00;0.00;;;16.70;90.50;;;;;;5011284;28;20111;-65
2023/07/23 09:14:45;;;;;;;0.20;0.20;;;16.70;90.30;;;;;;5010933;28;20045;-66
2023/07/23 09:17:20;;;;;;;0.00;0.00;;;16.80;90.30;;;;;;5009863;28;20128;-66
2023/07/23 09:19:47;;;;;;;0.20;0.20;;;16.80;90.00;;;;;;5010628;28;20030;-65
2023/07/23 09:22:15;;;;;;;0.10;0.10;;;16.80;89.90;;;;;;5002101;28;20124;-66
2023/07/23 09:24:41;;;;;;;0.10;0.10;;;16.70;90.00;;;;;;4992251;28;20050;-66
2023/07/23 09:27:12;;;;;;;0.00;0.00;;;16.70;90.10;;;;;;4992441;28;20053;-66
2023/07/23 09:29:43;;;;;;;2.20;1.35;;;16.80;90.10;;;;;;4992485;28;20093;-67
2023/07/23 09:32:25;;;;;;;0.05;0.05;;;16.70;90.10;;;;;;4998472;28;20046;-66
2023/07/23 09:34:52;;;;;;;0.10;0.10;;;16.80;90.00;;;;;;5010911;28;20053;-66
2023/07/23 09:37:17;;;;;;;0.00;0.00;;;16.80;90.00;;;;;;5011893;28;20069;-66
2023/07/23 09:39:43;;;;;;;0.13;0.13;;;16.80;89.90;;;;;;5006743;28;20080;-66
2023/07/23 09:42:11;;;;;;;0.00;0.00;;;16.80;89.90;;;;;;5000472;28;20137;-66
2023/07/23 09:44:39;;;;;;;0.00;0.00;;;16.80;89.90;;;;;;5004033;28;20038;-65
2023/07/23 09:47:05;;;;;;;0.00;0.00;;;16.80;90.00;;;;;;5003708;28;20060;-66
2023/07/23 09:49:31;;;;;;;0.00;0.00;;;16.90;89.80;;;;;;5000817;28;20446;-66
2023/07/23 09:51:57;;;;;;;0.52;0.52;;;16.90;89.90;;;;;;4998091;28;20084;-66
2023/07/23 09:54:25;;;;;;;0.00;0.00;;;16.90;89.90;;;;;;5005730;28;20081;-66
2023/07/23 09:56:51;;;;;;;0.00;0.00;;;16.90;89.90;;;;;;5003944;28;20053;-66
2023/07/23 09:59:18;;;;;;;0.00;0.00;;;16.90;89.90;;;;;;5011400;28;20384;-66
2023/07/23 10:01:44;;;;;;;4.45;0.73;;;17.00;89.80;;;;;;5010147;28;20049;-66
2023/07/23 10:04:11;;;;;;;0.32;0.32;;;17.10;89.70;;;;;;5011005;28;20046;-66
2023/07/23 10:06:37;;;;;;;0.15;0.15;;;17.10;89.50;;;;;;5010216;28;20077;-66
2023/07/23 10:09:03;;;;;;;0.47;0.47;;;17.10;89.60;;;;;;5010606;28;20062;-65
2023/07/23 10:11:28;;;;;;;0.00;0.00;;;17.20;89.50;;;;;;5008447;28;20394;-67
2023/07/23 10:13:54;;;;;;;0.00;0.00;;;17.30;89.50;;;;;;4996562;28;20046;-68
2023/07/23 10:16:27;;;;;;;0.00;0.00;;;17.30;89.30;;;;;;4991887;28;20112;-68
2023/07/23 10:18:55;;;;;;;0.40;0.40;;;17.30;89.30;;;;;;5010530;28;20053;-67
2023/07/23 10:21:21;;;;;;;0.08;0.08;;;17.30;89.10;;;;;;5010620;28;20104;-66
2023/07/23 10:23:57;;;;;;;0.00;0.00;;;17.40;89.00;;;;;;5010854;28;20085;-66
2023/07/23 10:26:26;;;;;;;0.30;0.30;;;17.40;88.80;;;;;;5010296;28;20046;-67
2023/07/23 10:28:58;;;;;;;0.00;0.00;;;17.40;88.80;;;;;;5006345;28;20511;-68
2023/07/23 10:31:26;;;;;;;0.10;0.10;;;17.40;88.90;;;;;;4990956;28;20053;-68
2023/07/23 10:33:52;;;;;;;0.10;0.10;;;17.40;89.10;;;;;;5004256;28;20081;-67
2023/07/23 10:36:21;;;;;;;0.10;0.10;;;17.50;89.00;;;;;;5008221;28;20143;-68
2023/07/23 10:39:01;;;;;;;0.00;0.00;;;17.50;89.00;;;;;;5005776;28;20050;-67
2023/07/23 10:41:50;;;;;;;0.00;0.00;;;17.50;88.90;;;;;;5006830;28;20045;-65
2023/07/23 10:44:28;;;;;;;0.00;0.00;;;17.60;88.70;;;;;;5006841;28;20069;-65
2023/07/23 10:46:57;;;;;;;0.00;0.00;;;17.60;88.60;;;;;;5009611;28;20030;-65
2023/07/23 10:49:27;;;;;;;0.73;0.52;;;17.60;88.60;;;;;;5000195;28;20072;-66
2023/07/23 10:51:53;;;;;;;0.10;0.10;;;17.60;88.60;;;;;;5009241;28;20057;-65
2023/07/23 10:54:20;;;;;;;0.15;0.15;;;17.70;88.50;;;;;;5010155;28;20108;-65
2023/07/23 10:56:48;;;;;;;0.43;0.43;;;17.60;88.60;;;;;;5009906;28;20148;-65
2023/07/23 10:59:16;;;;;;;2.20;1.55;;;17.60;88.60;;;;;;5010231;28;20124;-65
2023/07/23 11:01:43;;;;;;;0.30;0.30;;;17.60;88.80;;;;;;5008166;28;20133;-66
2023/07/23 11:04:11;;;;;;;0.00;0.00;;;17.60;88.80;;;;;;5007451;28;20068;-65
2023/07/23 11:06:41;;;;;;;0.00;0.00;;;17.60;88.80;;;;;;5006707;28;20068;-66
2023/07/23 11:09:10;;;;;;;0.90;0.75;;;17.60;88.90;;;;;;5000078;28;20046;-66
2023/07/23 11:11:37;;;;;;;0.20;0.20;;;17.60;89.20;;;;;;5003804;28;20077;-66
2023/07/23 11:14:16;;;;;;;0.00;0.00;;;17.50;89.30;;;;;;5002580;28;20450;-66
2023/07/23 11:16:41;;;;;;;0.32;0.32;;;17.50;89.30;;;;;;4999049;28;20064;-67
2023/07/23 11:19:07;;;;;;;0.00;0.00;;;17.50;89.30;;;;;;5003726;28;20046;-66
2023/07/23 11:21:33;;;;;;;0.10;0.10;;;17.50;89.40;;;;;;5008369;28;20133;-66
2023/07/23 11:23:59;;;;;;;0.08;0.08;;;17.50;89.50;;;;;;5002647;28;20033;-66
2023/07/23 11:26:25;;;;;;;0.00;0.00;;;17.50;89.70;;;;;;5007061;28;20038;-66
2023/07/23 11:28:51;;;;;;;0.00;0.00;;;17.40;89.70;;;;;;4998662;28;20056;-67
2023/07/23 11:31:17;;;;;;;0.05;0.05;;;17.40;89.90;;;;;;4990385;28;20050;-67
2023/07/23 11:33:42;;;;;;;0.20;0.20;;;17.40;89.90;;;;;;4995748;28;20118;-66
2023/07/23 11:36:09;;;;;;;0.20;0.20;;;17.40;89.90;;;;;;4993808;28;20043;-66
2023/07/23 11:38:34;;;;;;;0.08;0.08;;;17.40;89.70;;;;;;5007242;28;20046;-66
2023/07/23 11:41:00;;;;;;;0.00;0.00;;;17.40;89.90;;;;;;5009492;28;20052;-66
2023/07/23 11:43:26;;;;;;;25.85;0.75;;;17.50;90.00;;;;;;5002629;28;20050;-66
2023/07/23 11:45:52;;;;;;;0.08;0.08;;;17.50;90.00;;;;;;5000026;28;20050;-66
2023/07/23 11:48:21;;;;;;;0.45;0.45;;;17.60;90.20;;;;;;4999200;28;20037;-66
2023/07/23 11:50:48;;;;;;;0.10;0.10;;;17.60;90.00;;;;;;5004435;28;20042;-67
2023/07/23 11:53:29;;;;;;;0.57;0.57;;;17.60;90.00;;;;;;5007362;28;20089;-66
2023/07/23 11:56:01;;;;;;;0.00;0.00;;;17.60;90.00;;;;;;4996619;28;20108;-66
2023/07/23 11:58:27;;;;;;;0.20;0.20;;;17.60;89.90;;;;;;4993938;28;20068;-66
2023/07/23 12:00:53;;;;;;;0.30;0.30;;;17.70;90.00;;;;;;5007117;28;20096;-66
2023/07/23 12:03:19;;;;;;;0.00;0.00;;;17.80;89.90;;;;;;5003888;28;20506;-66
2023/07/23 12:05:45;;;;;;;0.10;0.10;;;17.90;89.90;;;;;;5008141;28;20046;-66
2023/07/23 12:08:11;;;;;;;0.15;0.15;;;18.00;89.80;;;;;;5000503;28;20096;-66
2023/07/23 12:10:37;;;;;;;1.02;0.68;;;18.10;89.50;;;;;;4989003;28;20082;-66
2023/07/23 12:13:08;;;;;;;0.00;0.00;;;18.20;89.40;;;;;;4999614;28;20088;-66
2023/07/23 12:15:33;;;;;;;0.00;0.00;;;18.20;89.30;;;;;;4992516;28;20069;-66
2023/07/23 12:17:59;;;;;;;0.10;0.10;;;18.40;89.30;;;;;;4991450;28;20656;-67
2023/07/23 12:20:25;;;;;;;0.00;0.00;;;18.50;89.10;;;;;;5008411;28;20046;-66
2023/07/23 12:22:56;;;;;;;0.00;0.00;;;18.60;88.90;;;;;;5008411;28;20065;-66
2023/07/23 12:25:23;;;;;;;0.10;0.10;;;18.60;88.80;;;;;;5007960;28;20066;-66
2023/07/23 12:27:50;;;;;;;0.40;0.40;;;18.80;88.50;;;;;;5008149;28;20678;-66
2023/07/23 12:30:16;;;;;;;0.00;0.00;;;18.80;88.30;;;;;;5004570;28;20050;-66
2023/07/23 12:32:42;;;;;;;0.10;0.10;;;19.00;88.30;;;;;;4991167;28;20406;-65
2023/07/23 12:35:08;;;;;;;0.00;0.00;;;19.00;88.10;;;;;;4999360;28;20042;-65
2023/07/23 12:37:36;;;;;;;0.00;0.00;;;19.20;88.00;;;;;;4987993;28;20050;-69
2023/07/23 12:40:04;;;;;;;0.00;0.00;;;19.50;87.90;;;;;;4998824;28;20079;-69
2023/07/23 12:42:31;;;;;;;0.22;0.22;;;19.60;86.80;;;;;;5003156;28;20398;-68
2023/07/23 12:44:57;;;;;;;0.00;0.00;;;19.70;86.50;;;;;;5001547;28;20086;-68